createdAt,value
2019-04-25T00:01:56.640Z,75.90
2019-04-25T00:06:58.133Z,75.55
2019-04-25T00:11:59.751Z,75.37
2019-04-25T00:17:01.716Z,75.85
2019-04-25T00:22:03.272Z,76.17
2019-04-25T00:27:04.628Z,75.98
2019-04-25T00:32:06.003Z,75.56
2019-04-25T00:37:07.542Z,75.10
2019-04-25T00:42:08.901Z,75.48
2019-04-25T00:47:11.778Z,75.15
2019-04-25T00:52:13.115Z,74.76
2019-04-25T00:57:14.549Z,75.48
2019-04-25T01:02:16.068Z,75.20
2019-04-25T01:07:17.398Z,76.10
2019-04-25T01:12:21.504Z,76.19
2019-04-25T01:17:23.025Z,76.15
2019-04-25T01:22:24.325Z,76.38
2019-04-25T01:27:25.659Z,76.62
2019-04-25T01:32:27.031Z,76.19
2019-04-25T01:37:28.315Z,76.70
2019-04-25T01:42:29.952Z,76.44
2019-04-25T01:47:31.683Z,76.77
2019-04-25T01:52:33.445Z,77.09
2019-04-25T01:57:35.044Z,76.96
2019-04-25T02:02:36.653Z,76.70
2019-04-25T02:07:38.129Z,75.81
2019-04-25T02:12:40.452Z,76.06
2019-04-25T02:17:41.874Z,76.44
2019-04-25T02:22:44.176Z,76.02
2019-04-25T02:27:45.635Z,76.46
2019-04-25T02:32:46.907Z,76.70
2019-04-25T02:37:48.349Z,76.27
2019-04-25T02:42:49.670Z,75.98
2019-04-25T02:47:51.243Z,75.03
2019-04-25T02:52:55.595Z,76.07
2019-04-25T02:57:57.035Z,74.80
2019-04-25T03:03:00.979Z,74.71
2019-04-25T03:08:07.980Z,74.86
2019-04-25T03:13:10.227Z,74.92
2019-04-25T03:18:12.484Z,74.73
2019-04-25T03:23:14.494Z,75.14
2019-04-25T03:28:16.133Z,75.28
2019-04-25T03:33:19.637Z,75.46
2019-04-25T03:38:21.086Z,76.17
2019-04-25T03:43:23.261Z,75.71
2019-04-25T03:48:25.236Z,75.25
2019-04-25T03:53:26.608Z,75.09
2019-04-25T03:58:28.210Z,74.58
2019-04-25T04:03:29.560Z,75.13
2019-04-25T04:08:30.864Z,74.84
2019-04-25T04:13:34.131Z,74.29
2019-04-25T04:18:35.374Z,74.65
2019-04-25T04:23:36.603Z,74.55
2019-04-25T04:28:38.232Z,74.48
2019-04-25T04:33:39.540Z,74.54
2019-04-25T04:38:41.264Z,74.46
2019-04-25T04:43:44.116Z,73.92
2019-04-25T04:48:45.709Z,74.36
2019-04-25T04:53:46.931Z,74.04
2019-04-25T04:58:48.432Z,72.82
2019-04-25T05:03:49.879Z,73.13
2019-04-25T05:08:51.410Z,73.80
2019-04-25T05:13:54.124Z,72.11
2019-04-25T05:18:55.680Z,72.61
2019-04-25T05:23:57.254Z,72.86
2019-04-25T05:28:58.972Z,72.49
2019-04-25T05:34:00.343Z,71.98
2019-04-25T05:39:01.792Z,71.93
2019-04-25T05:44:04.495Z,71.87
2019-04-25T05:49:06.218Z,71.56
2019-04-25T05:54:07.788Z,71.50
2019-04-25T05:59:09.054Z,70.86
2019-04-25T06:04:10.716Z,70.99
2019-04-25T06:09:11.964Z,70.72
2019-04-25T06:14:13.940Z,69.87
2019-04-25T06:19:18.497Z,70.00
2019-04-25T06:24:19.153Z,69.48
2019-04-25T06:29:21.823Z,68.78
2019-04-25T06:34:25.403Z,68.10
2019-04-25T06:39:27.946Z,66.91
2019-04-25T06:44:29.439Z,66.52
2019-04-25T06:49:31.426Z,65.81
2019-04-25T06:54:33.505Z,64.01
2019-04-25T06:59:40.979Z,62.81
2019-04-25T07:04:39.645Z,63.20
2019-04-25T07:09:40.923Z,64.14
2019-04-25T07:14:43.878Z,64.47
2019-04-25T07:19:45.418Z,64.36
2019-04-25T07:24:46.802Z,64.05
2019-04-25T07:29:48.170Z,64.64
2019-04-25T07:34:49.660Z,64.77
2019-04-25T07:39:51.154Z,64.40
2019-04-25T07:44:54.925Z,63.38
2019-04-25T07:49:55.985Z,63.06
2019-04-25T07:54:57.428Z,62.77
2019-04-25T07:59:59.232Z,62.32
2019-04-25T08:05:00.564Z,62.50
2019-04-25T08:10:01.990Z,62.34
2019-04-25T08:15:04.150Z,62.07
2019-04-25T08:20:06.090Z,61.97
2019-04-25T08:25:07.574Z,61.07
2019-04-25T08:30:09.041Z,60.29
2019-04-25T08:35:10.543Z,59.28
2019-04-25T08:40:13.588Z,58.44
2019-04-25T08:45:14.964Z,57.96
2019-04-25T08:50:26.982Z,57.02
2019-04-25T08:55:20.356Z,56.75
2019-04-25T09:00:21.866Z,55.65
2019-04-25T09:05:24.179Z,54.91
2019-04-25T09:10:25.602Z,54.12
2019-04-25T09:15:26.899Z,53.37
2019-04-25T09:20:28.370Z,53.68
2019-04-25T09:25:29.887Z,53.70
2019-04-25T09:30:31.374Z,53.71
2019-04-25T09:35:33.522Z,53.92
2019-04-25T09:40:35.935Z,53.58
2019-04-25T09:45:37.686Z,52.86
2019-04-25T09:50:39.689Z,52.58
2019-04-25T09:55:41.725Z,53.40
2019-04-25T10:00:44.712Z,51.01
2019-04-25T10:05:46.855Z,49.50
2019-04-25T10:10:48.280Z,49.70
2019-04-25T10:16:08.890Z,49.03
2019-04-25T10:21:10.366Z,49.86
2019-04-25T10:26:12.132Z,48.07
2019-04-25T10:31:13.835Z,48.80
2019-04-25T10:36:15.186Z,48.15
2019-04-25T10:41:16.537Z,47.79
2019-04-25T10:46:18.059Z,47.99
2019-04-25T10:51:19.473Z,46.64
2019-04-25T10:56:20.713Z,47.13
2019-04-25T11:01:22.019Z,46.21
2019-04-25T11:06:23.594Z,46.21
2019-04-25T11:11:25.055Z,46.77
2019-04-25T11:16:26.326Z,45.65
2019-04-25T11:21:27.677Z,46.35
2019-04-25T11:26:29.043Z,46.42
2019-04-25T11:31:30.644Z,43.75
2019-04-25T11:36:33.888Z,44.03
2019-04-25T11:41:35.642Z,43.35
2019-04-25T11:46:39.314Z,43.01
2019-04-25T11:51:41.800Z,42.77
2019-04-25T11:56:46.003Z,42.35
2019-04-25T12:01:47.782Z,41.07
2019-04-25T12:06:49.891Z,42.01
2019-04-25T12:11:51.167Z,43.09
2019-04-25T12:16:53.226Z,42.84
2019-04-25T12:21:56.760Z,43.17
2019-04-25T12:26:58.978Z,43.41
2019-04-25T12:32:00.474Z,42.67
2019-04-25T12:37:01.963Z,43.35
2019-04-25T12:42:04.338Z,43.90
2019-04-25T12:47:06.026Z,44.08
2019-04-25T12:52:07.517Z,44.29
2019-04-25T12:57:08.893Z,45.04
2019-04-25T13:02:10.293Z,45.44
2019-04-25T13:07:11.543Z,46.28
2019-04-25T13:12:14.465Z,47.33
2019-04-25T13:17:16.472Z,48.92
2019-04-25T13:22:17.870Z,50.22
2019-04-25T13:27:19.164Z,52.68
2019-04-25T13:32:20.533Z,55.99
2019-04-25T13:37:21.769Z,59.42
2019-04-25T13:42:23.336Z,61.09
2019-04-25T13:47:27.930Z,62.21
2019-04-25T13:52:28.898Z,63.31
2019-04-25T13:57:30.588Z,64.53
2019-04-25T14:02:31.974Z,65.12
2019-04-25T14:07:36.887Z,65.64
2019-04-25T14:12:38.130Z,66.25
2019-04-25T14:17:40.185Z,66.14
2019-04-25T14:22:43.182Z,66.28
2019-04-25T14:27:47.045Z,66.07
2019-04-25T14:32:48.272Z,66.86
2019-04-25T14:37:50.429Z,66.19
2019-04-25T14:42:51.772Z,65.58
2019-04-25T14:47:53.336Z,65.03
2019-04-25T14:52:54.585Z,64.68
2019-04-25T14:58:00.328Z,64.26
2019-04-25T15:03:01.814Z,64.23
2019-04-25T15:08:03.262Z,64.36
2019-04-25T15:13:04.679Z,64.40
2019-04-25T15:18:06.038Z,64.33
2019-04-25T15:23:07.540Z,64.95
2019-04-25T15:28:08.805Z,65.25
2019-04-25T15:33:10.190Z,64.65
2019-04-25T15:38:12.672Z,64.48
2019-04-25T15:43:17.082Z,64.44
2019-04-25T15:48:18.479Z,64.03
2019-04-25T15:53:20.788Z,64.53
2019-04-25T15:58:22.149Z,64.48
2019-04-25T16:03:23.420Z,64.29
2019-04-25T16:08:25.030Z,64.49
2019-04-25T16:13:28.157Z,64.64
2019-04-25T16:18:30.476Z,64.01
2019-04-25T16:23:32.214Z,63.51
2019-04-25T16:28:33.875Z,63.67
2019-04-25T16:33:35.658Z,63.87
2019-04-25T16:38:36.913Z,62.34
2019-04-25T16:43:39.003Z,59.20
2019-04-25T16:48:41.098Z,60.46
2019-04-25T16:53:43.737Z,61.03
2019-04-25T16:58:45.557Z,61.19
2019-04-25T17:03:46.910Z,61.30
2019-04-25T17:08:48.359Z,60.53
2019-04-25T17:13:49.633Z,60.49
2019-04-25T17:18:50.888Z,61.49
2019-04-25T17:23:52.390Z,61.90
2019-04-25T17:28:53.717Z,62.18
2019-04-25T17:33:54.976Z,62.47
2019-04-25T17:38:56.325Z,62.40
2019-04-25T17:43:57.731Z,62.02
2019-04-25T17:48:59.175Z,61.95
2019-04-25T17:54:00.651Z,62.32
2019-04-25T17:59:01.994Z,62.83
2019-04-25T18:04:03.480Z,62.87
2019-04-25T18:09:05.603Z,62.84
2019-04-25T18:14:07.140Z,63.63
2019-04-25T18:19:08.478Z,63.52
2019-04-25T18:24:09.721Z,63.63
2019-04-25T18:29:10.961Z,63.49
2019-04-25T18:34:12.333Z,63.68
2019-04-25T18:39:13.744Z,63.69
2019-04-25T18:44:15.462Z,62.73
2019-04-25T18:49:18.107Z,62.89
2019-04-25T18:54:20.625Z,62.96
2019-04-25T18:59:22.190Z,62.85
2019-04-25T19:04:23.621Z,62.75
2019-04-25T19:09:25.467Z,62.79
2019-04-25T19:14:27.374Z,62.58
2019-04-25T19:19:28.750Z,62.77
2019-04-25T19:24:30.193Z,62.77
2019-04-25T19:29:31.550Z,62.97
2019-04-25T19:34:33.549Z,63.24
2019-04-25T19:39:34.781Z,63.54
2019-04-25T19:44:36.321Z,63.79
2019-04-25T19:49:37.809Z,63.69
2019-04-25T19:54:39.166Z,63.53
2019-04-25T19:59:41.063Z,63.55
2019-04-25T20:04:43.288Z,63.42
2019-04-25T20:09:46.987Z,63.51
2019-04-25T20:14:49.196Z,63.43
2019-04-25T20:19:51.877Z,63.43
2019-04-25T20:24:54.964Z,63.61
2019-04-25T20:29:57.398Z,63.52
2019-04-25T20:34:59.239Z,63.64
2019-04-25T20:40:00.526Z,63.71
2019-04-25T20:45:02.021Z,63.88
2019-04-25T20:50:03.494Z,63.90
2019-04-25T20:55:05.342Z,64.13
2019-04-25T21:00:06.723Z,64.15
2019-04-25T21:05:08.069Z,64.08
2019-04-25T21:10:09.434Z,64.16
2019-04-25T21:15:10.686Z,64.23
2019-04-25T21:20:11.945Z,64.44
2019-04-25T21:25:13.198Z,64.41
2019-04-25T21:30:14.755Z,64.43
2019-04-25T21:35:16.301Z,64.51
2019-04-25T21:40:17.635Z,64.84
2019-04-25T21:45:19.202Z,64.82
2019-04-25T21:50:20.632Z,64.96
2019-04-25T21:55:22.084Z,64.96
2019-04-25T22:00:23.743Z,65.56
2019-04-25T22:05:25.450Z,65.48
2019-04-25T22:10:27.066Z,65.68
2019-04-25T22:15:28.292Z,65.47
2019-04-25T22:20:30.273Z,65.63
2019-04-25T22:25:31.674Z,66.04
2019-04-25T22:30:33.393Z,66.09
2019-04-25T22:35:36.353Z,66.13
2019-04-25T22:40:38.524Z,65.94
2019-04-25T22:45:39.961Z,66.22
2019-04-25T22:50:41.301Z,66.49
2019-04-25T22:55:42.683Z,66.70
2019-04-25T23:00:44.059Z,66.64
2019-04-25T23:05:45.399Z,66.71
2019-04-25T23:10:47.290Z,66.93
2019-04-25T23:15:48.506Z,67.21
2019-04-25T23:20:50.396Z,67.27
2019-04-25T23:25:52.097Z,67.36
2019-04-25T23:30:53.988Z,67.83
2019-04-25T23:35:55.218Z,67.91
2019-04-25T23:40:56.463Z,68.11
2019-04-25T23:45:58.849Z,68.10
2019-04-25T23:51:00.725Z,68.21
2019-04-25T23:56:01.953Z,68.70
